createdAt,value
2023-03-21T00:00:21.036Z,99824.72
2023-03-21T00:03:09.245Z,99820.59
2023-03-21T00:05:55.269Z,99820.66
2023-03-21T00:08:40.312Z,99818.28
2023-03-21T00:11:18.983Z,99812.34
2023-03-21T00:13:55.499Z,99809.16
2023-03-21T00:16:41.569Z,99809.22
2023-03-21T00:19:39.777Z,99803.28
2023-03-21T00:22:15.732Z,99805.97
2023-03-21T00:24:58.407Z,99800.03
2023-03-21T00:28:07.205Z,99794.00
2023-03-21T00:30:54.959Z,99801.06
2023-03-21T00:33:40.495Z,99787.34
2023-03-21T00:36:33.142Z,99786.50
2023-03-21T00:39:06.487Z,99785.50
2023-03-21T00:41:42.888Z,99790.75
2023-03-21T00:44:25.739Z,99780.50
2023-03-21T00:47:08.243Z,99774.25
2023-03-21T00:49:54.004Z,99778.31
2023-03-21T00:52:47.178Z,99778.13
2023-03-21T00:55:35.292Z,99773.03
2023-03-21T00:58:17.275Z,99773.88
2023-03-21T01:00:51.149Z,99767.13
2023-03-21T01:03:42.591Z,99767.13
2023-03-21T01:06:29.960Z,99766.19
2023-03-21T01:09:33.765Z,99762.66
2023-03-21T01:12:26.255Z,99760.00
2023-03-21T01:15:17.963Z,99761.69
2023-03-21T01:18:02.803Z,99755.81
2023-03-21T01:20:44.643Z,99755.97
2023-03-21T01:23:40.681Z,99754.38
2023-03-21T01:26:24.488Z,99750.25
2023-03-21T01:29:03.821Z,99746.19
2023-03-21T01:31:47.456Z,99746.19
2023-03-21T01:34:19.081Z,99742.84
2023-03-21T01:36:54.730Z,99748.00
2023-03-21T01:39:39.317Z,99743.97
2023-03-21T01:43:13.071Z,99744.53
2023-03-21T01:46:51.555Z,99743.31
2023-03-21T01:50:13.977Z,99747.13
2023-03-21T01:53:04.802Z,99749.19
2023-03-21T01:55:49.284Z,99742.59
2023-03-21T01:58:52.141Z,99740.47
2023-03-21T02:02:40.267Z,99730.84
2023-03-21T02:05:26.045Z,99743.13
2023-03-21T02:08:12.138Z,99735.63
2023-03-21T02:11:09.194Z,99734.84
2023-03-21T02:13:46.835Z,99736.44
2023-03-21T02:16:44.339Z,99731.09
2023-03-21T02:20:18.392Z,99722.47
2023-03-21T02:23:41.458Z,99724.44
2023-03-21T02:27:03.667Z,99716.94
2023-03-21T02:30:51.310Z,99714.50
2023-03-21T02:34:18.022Z,99721.34
2023-03-21T02:37:23.428Z,99713.03
2023-03-21T02:40:17.723Z,99716.78
2023-03-21T02:43:23.412Z,99710.06
2023-03-21T02:46:08.480Z,99711.94
2023-03-21T02:49:06.587Z,99715.28
2023-03-21T02:51:50.186Z,99717.78
2023-03-21T02:54:53.644Z,99715.06
2023-03-21T02:57:45.313Z,99705.59
2023-03-21T03:00:23.306Z,99708.84
2023-03-21T03:03:08.326Z,99711.28
2023-03-21T03:06:08.525Z,99713.84
2023-03-21T03:09:50.796Z,99704.38
2023-03-21T03:12:54.380Z,99703.56
2023-03-21T03:15:41.153Z,99702.00
2023-03-21T03:18:43.613Z,99708.28
2023-03-21T03:21:36.037Z,99699.78
2023-03-21T03:24:14.696Z,99696.38
2023-03-21T03:26:57.840Z,99705.22
2023-03-21T03:29:44.682Z,99701.25
2023-03-21T03:32:32.047Z,99708.09
2023-03-21T03:35:39.121Z,99697.91
2023-03-21T03:38:35.623Z,99704.97
2023-03-21T03:41:25.795Z,99698.41
2023-03-21T03:44:18.184Z,99702.84
2023-03-21T03:47:08.647Z,99707.41
2023-03-21T03:49:53.255Z,99702.50
2023-03-21T03:52:31.272Z,99703.66
2023-03-21T03:55:33.281Z,99702.28
2023-03-21T03:58:27.462Z,99707.69
2023-03-21T04:01:13.401Z,99705.22
2023-03-21T04:04:12.706Z,99701.00
2023-03-21T04:07:08.192Z,99711.16
2023-03-21T04:09:54.097Z,99707.50
2023-03-21T04:12:33.760Z,99705.72
2023-03-21T04:15:37.362Z,99704.84
2023-03-21T04:18:30.673Z,99702.41
2023-03-21T04:21:04.824Z,99693.97
2023-03-21T04:23:51.647Z,99694.75
2023-03-21T04:26:33.916Z,99690.97
2023-03-21T04:29:24.453Z,99689.13
2023-03-21T04:32:08.177Z,99693.25
2023-03-21T04:34:54.346Z,99690.53
2023-03-21T04:37:47.151Z,99699.81
2023-03-21T04:40:23.187Z,99691.19
2023-03-21T04:43:03.533Z,99691.97
2023-03-21T04:45:41.735Z,99686.88
2023-03-21T04:48:25.140Z,99687.72
2023-03-21T04:51:11.755Z,99689.56
2023-03-21T04:53:49.620Z,99688.03
2023-03-21T04:56:31.608Z,99691.56
2023-03-21T04:59:14.591Z,99690.72
2023-03-21T05:01:57.273Z,99685.63
2023-03-21T05:04:48.556Z,99689.91
2023-03-21T05:07:37.380Z,99692.47
2023-03-21T05:10:24.195Z,99681.41
2023-03-21T05:13:03.974Z,99680.63
2023-03-21T05:16:03.501Z,99683.31
2023-03-21T05:18:35.533Z,99683.56
2023-03-21T05:21:15.031Z,99683.00
2023-03-21T05:24:00.762Z,99684.16
2023-03-21T05:26:57.098Z,99678.34
2023-03-21T05:29:49.932Z,99677.63
2023-03-21T05:32:33.801Z,99673.44
2023-03-21T05:35:33.047Z,99680.44
2023-03-21T05:38:17.436Z,99683.22
2023-03-21T05:40:57.651Z,99676.63
2023-03-21T05:44:08.374Z,99672.47
2023-03-21T05:46:51.334Z,99678.53
2023-03-21T05:49:45.135Z,99680.31
2023-03-21T05:52:16.289Z,99672.78
2023-03-21T05:54:52.204Z,99673.66
2023-03-21T05:57:32.289Z,99677.97
2023-03-21T06:00:22.343Z,99676.28
2023-03-21T06:03:08.268Z,99677.00
2023-03-21T06:06:04.110Z,99673.38
2023-03-21T06:09:06.010Z,99669.78
2023-03-21T06:11:42.597Z,99671.47
2023-03-21T06:14:29.318Z,99683.50
2023-03-21T06:17:43.336Z,99678.41
2023-03-21T06:20:27.058Z,99678.28
2023-03-21T06:23:21.818Z,99681.53
2023-03-21T06:26:15.701Z,99685.53
2023-03-21T06:29:04.359Z,99686.81
2023-03-21T06:31:56.297Z,99689.09
2023-03-21T06:34:32.647Z,99690.31
2023-03-21T06:37:04.435Z,99686.56
2023-03-21T06:39:50.316Z,99687.91
2023-03-21T06:42:30.741Z,99688.38
2023-03-21T06:45:09.960Z,99695.59
2023-03-21T06:47:43.972Z,99696.00
2023-03-21T06:50:51.147Z,99683.50
2023-03-21T06:53:53.677Z,99684.66
2023-03-21T06:56:57.208Z,99685.63
2023-03-21T06:59:41.924Z,99685.81
2023-03-21T07:02:25.584Z,99683.16
2023-03-21T07:05:20.544Z,99681.50
2023-03-21T07:08:12.962Z,99685.09
2023-03-21T07:10:51.819Z,99679.19
2023-03-21T07:13:50.197Z,99686.09
2023-03-21T07:16:31.399Z,99686.84
2023-03-21T07:19:19.527Z,99684.16
2023-03-21T07:22:07.898Z,99684.06
2023-03-21T07:24:55.961Z,99679.66
2023-03-21T07:27:36.115Z,99674.41
2023-03-21T07:30:40.464Z,99665.63
2023-03-21T07:33:32.078Z,99665.50
2023-03-21T07:36:22.716Z,99664.50
2023-03-21T07:39:15.441Z,99662.75
2023-03-21T07:42:20.768Z,99660.19
2023-03-21T07:45:14.190Z,99657.66
2023-03-21T07:47:44.932Z,99655.22
2023-03-21T07:50:30.168Z,99662.31
2023-03-21T07:53:07.194Z,99656.53
2023-03-21T07:55:39.418Z,99645.63
2023-03-21T07:58:27.269Z,99651.22
2023-03-21T08:01:21.786Z,99647.41
2023-03-21T08:03:56.339Z,99658.25
2023-03-21T08:06:39.714Z,99660.50
2023-03-21T08:09:40.839Z,99658.38
2023-03-21T08:12:49.609Z,99664.69
2023-03-21T08:15:38.302Z,99658.38
2023-03-21T08:18:25.590Z,99657.88
2023-03-21T08:21:03.651Z,99649.53
2023-03-21T08:23:45.950Z,99650.63
2023-03-21T08:26:32.538Z,99645.44
2023-03-21T08:29:29.459Z,99647.16
2023-03-21T08:32:28.815Z,99641.91
2023-03-21T08:35:04.535Z,99639.84
2023-03-21T08:37:55.965Z,99641.53
2023-03-21T08:40:44.324Z,99641.78
2023-03-21T08:43:26.345Z,99646.31
2023-03-21T08:46:07.027Z,99646.91
2023-03-21T08:48:58.451Z,99645.69
2023-03-21T08:51:48.325Z,99643.31
2023-03-21T08:54:30.430Z,99647.09
2023-03-21T08:57:16.394Z,99642.53
2023-03-21T08:59:47.476Z,99634.50
2023-03-21T09:02:27.614Z,99632.31
2023-03-21T09:05:14.179Z,99632.22
2023-03-21T09:08:00.615Z,99624.84
2023-03-21T09:10:32.661Z,99632.13
2023-03-21T09:13:13.459Z,99626.28
2023-03-21T09:15:54.850Z,99632.75
2023-03-21T09:18:50.897Z,99626.28
2023-03-21T09:21:44.522Z,99639.41
2023-03-21T09:24:53.953Z,99634.44
2023-03-21T09:27:34.762Z,99631.78
2023-03-21T09:30:20.674Z,99634.06
2023-03-21T09:33:01.866Z,99627.22
2023-03-21T09:35:33.536Z,99632.09
2023-03-21T09:38:40.008Z,99630.00
2023-03-21T09:42:15.562Z,99638.75
2023-03-21T09:45:09.323Z,99635.84
2023-03-21T09:47:54.694Z,99636.06
2023-03-21T09:50:44.120Z,99637.31
2023-03-21T09:53:26.234Z,99638.78
2023-03-21T09:56:28.390Z,99643.78
2023-03-21T09:59:11.141Z,99638.66
2023-03-21T10:02:04.080Z,99638.94
2023-03-21T10:04:38.614Z,99641.91
2023-03-21T10:07:24.087Z,99638.75
2023-03-21T10:10:28.417Z,99640.72
2023-03-21T10:13:36.526Z,99645.09
2023-03-21T10:16:20.124Z,99644.38
2023-03-21T10:19:20.468Z,99638.66
2023-03-21T10:22:14.487Z,99633.56
2023-03-21T10:25:03.225Z,99642.28
2023-03-21T10:27:56.562Z,99637.50
2023-03-21T10:30:43.607Z,99639.59
2023-03-21T10:33:35.716Z,99630.84
2023-03-21T10:36:19.695Z,99632.53
2023-03-21T10:39:13.757Z,99631.56
2023-03-21T10:41:54.868Z,99625.59
2023-03-21T10:44:38.227Z,99624.94
2023-03-21T10:47:27.083Z,99619.72
2023-03-21T10:50:09.238Z,99624.03
2023-03-21T10:52:57.989Z,99618.00
2023-03-21T10:55:58.169Z,99606.31
2023-03-21T10:58:48.720Z,99604.81
2023-03-21T11:01:34.316Z,99597.94
2023-03-21T11:04:27.057Z,99609.75
2023-03-21T11:07:09.710Z,99609.25
2023-03-21T11:10:14.628Z,99613.59
2023-03-21T11:13:06.767Z,99617.06
2023-03-21T11:15:53.968Z,99608.19
2023-03-21T11:18:45.314Z,99616.50
2023-03-21T11:21:29.620Z,99610.13
2023-03-21T11:24:24.351Z,99605.94
2023-03-21T11:27:00.515Z,99616.41
2023-03-21T11:29:49.099Z,99615.38
2023-03-21T11:32:36.001Z,99612.34
2023-03-21T11:35:21.680Z,99618.13
2023-03-21T11:38:34.904Z,99603.63
2023-03-21T11:41:22.426Z,99607.78
2023-03-21T11:44:13.812Z,99606.03
2023-03-21T11:46:54.313Z,99611.47
2023-03-21T11:49:35.276Z,99599.88
2023-03-21T11:52:33.442Z,99593.31
2023-03-21T11:55:51.480Z,99594.66
2023-03-21T11:58:46.236Z,99593.03
2023-03-21T12:01:48.116Z,99592.59
2023-03-21T12:04:42.107Z,99587.19
2023-03-21T12:07:41.956Z,99572.84
2023-03-21T12:10:43.915Z,99570.97
2023-03-21T12:13:41.978Z,99558.13
2023-03-21T12:16:40.390Z,99553.16
2023-03-21T12:19:40.202Z,99543.88
2023-03-21T12:22:26.493Z,99550.72
2023-03-21T12:25:09.167Z,99539.09
2023-03-21T12:27:53.500Z,99531.38
2023-03-21T12:30:46.597Z,99530.72
2023-03-21T12:33:56.210Z,99530.50
2023-03-21T12:37:05.415Z,99528.84
2023-03-21T12:39:44.339Z,99527.69
2023-03-21T12:43:01.051Z,99517.81
2023-03-21T12:45:58.421Z,99518.25
2023-03-21T12:48:47.842Z,99512.03
2023-03-21T12:51:30.477Z,99496.59
2023-03-21T12:54:34.758Z,99496.66
2023-03-21T12:57:15.165Z,99500.25
2023-03-21T12:59:57.488Z,99485.81
2023-03-21T13:02:59.364Z,99491.84
2023-03-21T13:05:36.169Z,99490.19
2023-03-21T13:08:32.030Z,99489.94
2023-03-21T13:11:11.290Z,99484.63
2023-03-21T13:14:05.587Z,99479.03
2023-03-21T13:16:43.392Z,99480.81
2023-03-21T13:19:31.288Z,99478.34
2023-03-21T13:22:11.136Z,99474.66
2023-03-21T13:24:55.333Z,99458.66
2023-03-21T13:27:33.722Z,99470.50
2023-03-21T13:30:08.183Z,99469.81
2023-03-21T13:33:01.976Z,99463.72
2023-03-21T13:36:02.665Z,99460.09
2023-03-21T13:38:40.437Z,99461.25
2023-03-21T13:41:31.742Z,99455.22
2023-03-21T13:44:22.614Z,99457.19
2023-03-21T13:47:08.006Z,99454.22
2023-03-21T13:49:42.939Z,99448.41
2023-03-21T13:53:20.460Z,99454.13
2023-03-21T13:56:27.136Z,99450.94
2023-03-21T13:59:17.985Z,99445.38
2023-03-21T14:02:16.044Z,99449.38
2023-03-21T14:05:06.423Z,99444.84
2023-03-21T14:08:12.321Z,99441.28
2023-03-21T14:10:54.362Z,99434.53
2023-03-21T14:14:00.090Z,99432.03
2023-03-21T14:16:47.322Z,99426.09
2023-03-21T14:19:32.037Z,99424.34
2023-03-21T14:22:20.086Z,99418.78
2023-03-21T14:25:03.842Z,99423.34
2023-03-21T14:27:49.174Z,99422.00
2023-03-21T14:30:32.570Z,99420.31
2023-03-21T14:33:16.373Z,99421.91
2023-03-21T14:35:49.765Z,99419.97
2023-03-21T14:38:30.113Z,99422.75
2023-03-21T14:41:46.996Z,99411.78
2023-03-21T14:44:30.248Z,99418.94
2023-03-21T14:47:15.437Z,99424.66
2023-03-21T14:50:05.014Z,99424.34
2023-03-21T14:52:56.031Z,99419.44
2023-03-21T14:56:07.462Z,99416.81
2023-03-21T14:58:47.074Z,99418.78
2023-03-21T15:01:36.560Z,99420.97
2023-03-21T15:04:14.616Z,99413.38
2023-03-21T15:07:02.493Z,99409.53
2023-03-21T15:09:50.288Z,99401.97
2023-03-21T15:12:21.713Z,99409.66
2023-03-21T15:15:08.432Z,99396.94
2023-03-21T15:17:55.130Z,99366.69
2023-03-21T15:20:34.235Z,99341.56
2023-03-21T15:23:33.183Z,99353.00
2023-03-21T15:26:20.161Z,99356.94
2023-03-21T15:29:02.808Z,99371.53
2023-03-21T15:32:06.005Z,99375.41
2023-03-21T15:34:56.763Z,99390.84
2023-03-21T15:37:40.108Z,99386.78
2023-03-21T15:40:25.552Z,99385.88
2023-03-21T15:43:16.593Z,99387.19
2023-03-21T15:45:57.000Z,99390.94
2023-03-21T15:48:38.779Z,99392.13
2023-03-21T15:51:27.848Z,99381.09
2023-03-21T15:54:24.945Z,99378.34
2023-03-21T15:57:31.490Z,99372.88
2023-03-21T16:00:23.084Z,99374.34
2023-03-21T16:03:11.054Z,99363.09
2023-03-21T16:06:10.868Z,99361.94
2023-03-21T16:08:55.704Z,99353.63
2023-03-21T16:11:44.911Z,99355.59
2023-03-21T16:14:42.434Z,99341.91
2023-03-21T16:17:43.026Z,99327.59
2023-03-21T16:20:25.459Z,99322.00
2023-03-21T16:23:16.429Z,99339.88
2023-03-21T16:26:05.933Z,99345.44
2023-03-21T16:28:45.712Z,99354.56
2023-03-21T16:31:43.499Z,99373.94
2023-03-21T16:34:40.458Z,99377.22
2023-03-21T16:37:19.211Z,99374.19
2023-03-21T16:40:11.370Z,99367.34
2023-03-21T16:42:47.431Z,99375.03
2023-03-21T16:45:33.688Z,99378.66
2023-03-21T16:48:16.838Z,99382.47
2023-03-21T16:50:58.534Z,99381.63
2023-03-21T16:53:58.384Z,99385.13
2023-03-21T16:56:54.893Z,99381.72
2023-03-21T16:59:44.197Z,99378.09
2023-03-21T17:02:19.453Z,99385.78
2023-03-21T17:05:05.004Z,99373.94
2023-03-21T17:07:45.993Z,99355.06
2023-03-21T17:10:34.188Z,99367.94
2023-03-21T17:13:57.938Z,99370.00
2023-03-21T17:16:43.344Z,99363.13
2023-03-21T17:19:26.636Z,99364.91
2023-03-21T17:22:01.100Z,99362.63
2023-03-21T17:24:44.037Z,99364.66
2023-03-21T17:27:29.566Z,99373.94
2023-03-21T17:30:30.940Z,99381.03
2023-03-21T17:33:17.590Z,99379.16
2023-03-21T17:35:51.691Z,99373.63
2023-03-21T17:38:30.421Z,99378.19
2023-03-21T17:41:27.816Z,99376.50
2023-03-21T17:44:10.980Z,99373.16
2023-03-21T17:47:07.867Z,99372.19
2023-03-21T17:50:01.815Z,99367.91
2023-03-21T17:52:50.939Z,99381.13
2023-03-21T17:55:41.683Z,99377.22
2023-03-21T17:58:39.483Z,99375.09
2023-03-21T18:01:31.215Z,99367.78
2023-03-21T18:04:11.311Z,99369.56
2023-03-21T18:07:13.954Z,99368.63
2023-03-21T18:10:15.218Z,99356.78
2023-03-21T18:13:06.317Z,99360.47
2023-03-21T18:15:48.331Z,99365.94
2023-03-21T18:18:19.540Z,99359.38
2023-03-21T18:21:01.760Z,99369.94
2023-03-21T18:23:48.692Z,99374.78
2023-03-21T18:26:33.599Z,99374.31
2023-03-21T18:30:50.441Z,99370.09
2023-03-21T18:32:19.760Z,99372.94
2023-03-21T18:34:57.942Z,99374.88
2023-03-21T18:37:43.510Z,99385.56
2023-03-21T18:40:44.547Z,99389.41
2023-03-21T18:44:00.739Z,99390.69
2023-03-21T18:46:17.981Z,99378.03
2023-03-21T18:48:51.590Z,99389.13
2023-03-21T18:51:32.001Z,99390.47
2023-03-21T18:54:34.968Z,99398.91
2023-03-21T18:57:38.836Z,99396.78
2023-03-21T19:00:23.728Z,99401.41
2023-03-21T19:03:30.120Z,99395.75
2023-03-21T19:06:17.911Z,99400.69
2023-03-21T19:09:00.313Z,99395.94
2023-03-21T19:11:44.024Z,99399.13
2023-03-21T19:14:32.337Z,99397.88
2023-03-21T19:20:26.526Z,99407.84
2023-03-21T19:23:04.268Z,99405.69
2023-03-21T19:26:04.373Z,99412.22
2023-03-21T19:28:45.296Z,99405.72
2023-03-21T19:31:25.905Z,99408.47
2023-03-21T19:34:06.797Z,99408.47
2023-03-21T19:36:55.428Z,99411.81
2023-03-21T19:39:36.897Z,99410.91
2023-03-21T19:42:37.055Z,99420.31
2023-03-21T19:45:30.601Z,99422.03
2023-03-21T19:48:07.388Z,99422.78
2023-03-21T19:51:26.902Z,99426.13
2023-03-21T19:54:05.607Z,99414.97
2023-03-21T19:56:47.122Z,99416.63
2023-03-21T19:59:20.212Z,99414.81
2023-03-21T20:02:33.207Z,99409.66
2023-03-21T20:05:06.010Z,99401.91
2023-03-21T20:08:06.100Z,99404.06
2023-03-21T20:10:48.659Z,99406.16
2023-03-21T20:13:34.338Z,99401.22
2023-03-21T20:16:14.615Z,99401.53
2023-03-21T20:18:52.841Z,99398.50
2023-03-21T20:21:34.905Z,99400.50
2023-03-21T20:24:44.613Z,99396.25
2023-03-21T20:27:43.930Z,99398.81
2023-03-21T20:30:34.923Z,99406.91
2023-03-21T20:33:30.846Z,99408.78
2023-03-21T20:36:38.752Z,99413.34
2023-03-21T20:39:05.868Z,99399.69
2023-03-21T20:41:44.693Z,99417.69
2023-03-21T20:44:56.325Z,99414.19
2023-03-21T20:47:37.836Z,99406.44
2023-03-21T20:50:38.986Z,99412.19
2023-03-21T20:53:39.566Z,99409.47
2023-03-21T20:56:13.730Z,99409.38
2023-03-21T20:59:02.076Z,99400.75
2023-03-21T21:01:39.968Z,99408.72
2023-03-21T21:04:20.397Z,99408.72
2023-03-21T21:07:17.637Z,99395.06
2023-03-21T21:10:52.418Z,99388.31
2023-03-21T21:13:31.647Z,99386.75
2023-03-21T21:16:14.144Z,99386.13
2023-03-21T21:18:50.220Z,99394.16
2023-03-21T21:21:21.522Z,99394.47
2023-03-21T21:23:53.583Z,99406.88
2023-03-21T21:26:34.033Z,99395.34
2023-03-21T21:29:11.386Z,99397.34
2023-03-21T21:31:44.751Z,99395.03
2023-03-21T21:34:22.026Z,99400.59
2023-03-21T21:37:20.402Z,99405.38
2023-03-21T21:40:13.970Z,99409.28
2023-03-21T21:43:20.905Z,99405.41
2023-03-21T21:46:21.995Z,99417.66
2023-03-21T21:49:01.894Z,99410.00
2023-03-21T21:51:42.209Z,99411.69
2023-03-21T21:54:18.741Z,99409.09
2023-03-21T21:56:58.349Z,99409.22
2023-03-21T21:59:54.434Z,99400.97
2023-03-21T22:02:28.636Z,99410.72
2023-03-21T22:05:17.105Z,99403.44
2023-03-21T22:07:52.265Z,99418.25
2023-03-21T22:10:46.674Z,99408.19
2023-03-21T22:13:30.881Z,99408.94
2023-03-21T22:16:03.452Z,99411.44
2023-03-21T22:18:36.262Z,99413.78
2023-03-21T22:21:09.241Z,99409.34
2023-03-21T22:24:00.690Z,99422.06
2023-03-21T22:26:44.961Z,99416.69
2023-03-21T22:29:20.772Z,99412.09
2023-03-21T22:31:58.319Z,99404.03
2023-03-21T22:34:34.926Z,99406.22
2023-03-21T22:37:30.669Z,99405.03
2023-03-21T22:40:15.119Z,99394.53
2023-03-21T22:42:54.187Z,99401.31
2023-03-21T22:45:39.260Z,99396.00
2023-03-21T22:48:21.335Z,99394.31
2023-03-21T22:51:08.531Z,99397.69
2023-03-21T22:53:39.628Z,99396.19
2023-03-21T22:56:13.172Z,99389.22
2023-03-21T22:59:00.921Z,99394.53
2023-03-21T23:01:43.748Z,99398.97
2023-03-21T23:04:46.225Z,99403.97
2023-03-21T23:07:17.060Z,99401.16
2023-03-21T23:10:06.976Z,99390.56
2023-03-21T23:12:37.912Z,99398.00
2023-03-21T23:15:15.438Z,99387.47
2023-03-21T23:17:58.980Z,99396.84
2023-03-21T23:20:53.943Z,99402.78
2023-03-21T23:23:25.204Z,99400.66
2023-03-21T23:26:12.463Z,99398.84
2023-03-21T23:28:46.726Z,99391.88
2023-03-21T23:31:26.463Z,99399.31
2023-03-21T23:34:08.299Z,99386.25
2023-03-21T23:37:10.988Z,99372.31
2023-03-21T23:39:45.560Z,99378.22
2023-03-21T23:42:19.186Z,99379.97
2023-03-21T23:45:09.554Z,99377.53
2023-03-21T23:47:54.670Z,99374.13
2023-03-21T23:50:24.953Z,99368.97
2023-03-21T23:53:15.396Z,99367.16
2023-03-21T23:55:59.508Z,99360.19
2023-03-21T23:59:05.781Z,99355.03
